Time;durP1;ratioP1;P1;durP2;ratioP2;P2;SDS_P1;SDS_P2;PMS_P1;PMS_P2;Temp;Humidity;BMP_temperature;BMP_pressure;BME280_temperature;BME280_humidity;BME280_pressure;Samples;Min_cycle;Max_cycle;Signal;HPM_P1;HPM_P2
2022/07/23 19:57:14;;;;;;;5.30;4.00;;;;;;;;;;5069048;28;20548;-78
2022/07/23 19:59:40;;;;;;;7.23;4.30;;;;;;;;;;5069078;28;20420;-78
2022/07/23 20:02:06;;;;;;;6.70;4.10;;;;;;;;;;5068795;28;20456;-78
2022/07/23 20:04:32;;;;;;;5.10;4.60;;;;;;;;;;5067640;28;20431;-79
2022/07/23 20:06:58;;;;;;;8.23;4.57;;;;;;;;;;5066824;28;20498;-77
2022/07/23 20:09:24;;;;;;;8.03;4.23;;;;;;;;;;5068548;28;20395;-78
2022/07/23 20:11:50;;;;;;;4.63;4.10;;;;;;;;;;5068391;28;20396;-77
2022/07/23 20:14:16;;;;;;;5.60;5.00;;;;;;;;;;5067039;28;20400;-78
2022/07/23 20:16:42;;;;;;;9.27;5.07;;;;;;;;;;5066194;28;20458;-79
2022/07/23 20:19:08;;;;;;;9.10;5.33;;;;;;;;;;5068261;28;20399;-78
2022/07/23 20:21:35;;;;;;;7.43;4.57;;;;;;;;;;5068304;28;20404;-78
2022/07/23 20:24:04;;;;;;;5.53;4.60;;;;;;;;;;5068053;28;20431;-77
2022/07/23 20:26:30;;;;;;;5.60;5.10;;;;;;;;;;5066706;28;21302;-78
2022/07/23 20:28:57;;;;;;;6.60;5.40;;;;;;;;;;5067440;28;20406;-77
2022/07/23 20:31:23;;;;;;;4.80;4.40;;;;;;;;;;5068229;28;20771;-77
2022/07/23 20:33:49;;;;;;;7.57;5.33;;;;;;;;;;5068123;28;20446;-77
2022/07/23 20:36:15;;;;;;;7.50;5.97;;;;;;;;;;5066426;28;20459;-77
2022/07/23 20:38:41;;;;;;;6.17;5.37;;;;;;;;;;5067611;28;20438;-77
2022/07/23 20:41:07;;;;;;;6.87;5.23;;;;;;;;;;5067959;28;20419;-78
2022/07/23 20:43:33;;;;;;;9.40;5.40;;;;;;;;;;5066668;28;20460;-77
2022/07/23 20:45:59;;;;;;;7.13;5.63;;;;;;;;;;5066419;28;21018;-77
2022/07/23 20:48:25;;;;;;;6.23;5.63;;;;;;;;;;5066219;28;20854;-77
2022/07/23 20:50:51;;;;;;;8.00;6.60;;;;;;;;;;5066504;28;20430;-77
2022/07/23 20:53:18;;;;;;;12.97;7.70;;;;;;;;;;5066510;28;20919;-77
2022/07/23 20:55:45;;;;;;;8.90;6.40;;;;;;;;;;5066054;28;21006;-77
2022/07/23 20:58:12;;;;;;;6.20;5.60;;;;;;;;;;5067312;28;20442;-77
2022/07/23 21:00:38;;;;;;;8.43;5.50;;;;;;;;;;5067757;28;20422;-77
2022/07/23 21:03:04;;;;;;;8.97;6.23;;;;;;;;;;5066422;28;20487;-77
2022/07/23 21:05:31;;;;;;;7.23;6.40;;;;;;;;;;5066052;28;20462;-77
2022/07/23 21:07:57;;;;;;;7.10;5.53;;;;;;;;;;5057341;28;20743;-77
2022/07/23 21:10:23;;;;;;;6.67;5.70;;;;;;;;;;5054092;28;20510;-77
2022/07/23 21:12:49;;;;;;;5.47;4.93;;;;;;;;;;5054391;28;20422;-77
2022/07/23 21:15:15;;;;;;;5.57;4.47;;;;;;;;;;5052637;28;20554;-77
2022/07/23 21:17:41;;;;;;;7.63;5.43;;;;;;;;;;5053779;28;20997;-77
2022/07/23 21:20:08;;;;;;;5.47;4.97;;;;;;;;;;5054305;28;20481;-77
2022/07/23 21:22:34;;;;;;;8.53;4.87;;;;;;;;;;5052745;28;20420;-77
2022/07/23 21:25:00;;;;;;;7.10;6.40;;;;;;;;;;5052957;28;20435;-77
2022/07/23 21:27:26;;;;;;;7.00;5.07;;;;;;;;;;5053564;28;20439;-77
2022/07/23 21:29:52;;;;;;;9.93;5.10;;;;;;;;;;5052943;28;20416;-77
2022/07/23 21:32:18;;;;;;;8.23;5.43;;;;;;;;;;5053232;28;20412;-78
2022/07/23 21:34:44;;;;;;;9.80;4.40;;;;;;;;;;5053909;28;20469;-78
2022/07/23 21:37:10;;;;;;;7.27;6.40;;;;;;;;;;5054588;28;20459;-78
2022/07/23 21:39:37;;;;;;;6.30;5.70;;;;;;;;;;5053723;28;20423;-78
2022/07/23 21:42:03;;;;;;;6.63;5.83;;;;;;;;;;5054746;28;20396;-78
2022/07/23 21:44:29;;;;;;;6.40;5.90;;;;;;;;;;5055677;28;20434;-78
2022/07/23 21:46:55;;;;;;;6.60;6.00;;;;;;;;;;5054114;28;20497;-78
2022/07/23 21:49:21;;;;;;;5.83;5.20;;;;;;;;;;5056267;28;20403;-78
2022/07/23 21:51:47;;;;;;;5.87;4.63;;;;;;;;;;5055239;28;20439;-78
2022/07/23 21:54:13;;;;;;;12.67;5.63;;;;;;;;;;5053423;28;20435;-78
2022/07/23 21:56:39;;;;;;;7.67;6.87;;;;;;;;;;5054655;28;20490;-78
2022/07/23 21:59:05;;;;;;;7.47;5.40;;;;;;;;;;5053346;28;20430;-78
2022/07/23 22:01:31;;;;;;;6.07;5.37;;;;;;;;;;5054536;28;20415;-78
2022/07/23 22:03:57;;;;;;;5.43;4.93;;;;;;;;;;5054381;28;20417;-79
2022/07/23 22:06:24;;;;;;;6.90;5.70;;;;;;;;;;5054762;28;20428;-79
2022/07/23 22:08:50;;;;;;;5.57;4.70;;;;;;;;;;5052965;28;20505;-78
2022/07/23 22:11:16;;;;;;;8.00;5.47;;;;;;;;;;5054659;28;20416;-78
2022/07/23 22:13:42;;;;;;;8.77;5.13;;;;;;;;;;5053531;28;20424;-78
2022/07/23 22:16:08;;;;;;;5.93;4.77;;;;;;;;;;5054729;28;20495;-78
2022/07/23 22:18:34;;;;;;;6.07;5.03;;;;;;;;;;5051592;28;20408;-78
2022/07/23 22:21:00;;;;;;;5.80;5.37;;;;;;;;;;5053105;28;20419;-78
2022/07/23 22:23:26;;;;;;;6.30;5.70;;;;;;;;;;5053345;28;20419;-77
2022/07/23 22:25:52;;;;;;;7.60;6.63;;;;;;;;;;5052852;28;20467;-78
2022/07/23 22:28:18;;;;;;;11.43;7.00;;;;;;;;;;5052687;28;20426;-78
2022/07/23 22:30:44;;;;;;;7.33;6.63;;;;;;;;;;5053353;28;20416;-78
2022/07/23 22:33:10;;;;;;;8.97;8.07;;;;;;;;;;5052945;28;20438;-78
2022/07/23 22:35:36;;;;;;;7.03;6.43;;;;;;;;;;5053048;28;20461;-78
2022/07/23 22:38:03;;;;;;;10.47;7.73;;;;;;;;;;5054278;28;20419;-78
2022/07/23 22:40:29;;;;;;;10.20;7.60;;;;;;;;;;5053505;28;20420;-78
2022/07/23 22:42:56;;;;;;;8.67;7.80;;;;;;;;;;5054981;28;20435;-78
2022/07/23 22:45:22;;;;;;;13.80;8.47;;;;;;;;;;5053257;28;20593;-78
2022/07/23 22:47:48;;;;;;;9.23;7.90;;;;;;;;;;5053608;28;20839;-78
2022/07/23 22:50:15;;;;;;;14.63;8.43;;;;;;;;;;5054310;28;20907;-78
2022/07/23 22:52:41;;;;;;;15.43;9.70;;;;;;;;;;5053048;28;20541;-77
2022/07/23 22:55:07;;;;;;;11.30;9.17;;;;;;;;;;5052294;28;21093;-78
2022/07/23 22:57:33;;;;;;;13.33;9.60;;;;;;;;;;5053904;28;20412;-78
2022/07/23 22:59:59;;;;;;;11.43;9.20;;;;;;;;;;5052258;28;20440;-78
2022/07/23 23:02:25;;;;;;;13.27;10.40;;;;;;;;;;5053500;28;20404;-78
2022/07/23 23:04:51;;;;;;;14.70;11.60;;;;;;;;;;5052277;28;20427;-78
2022/07/23 23:07:18;;;;;;;14.63;10.70;;;;;;;;;;5053278;28;20427;-78
2022/07/23 23:09:44;;;;;;;15.33;11.23;;;;;;;;;;5052428;28;20917;-78
2022/07/23 23:12:10;;;;;;;15.73;11.50;;;;;;;;;;5052476;28;20418;-78
2022/07/23 23:14:36;;;;;;;15.63;11.93;;;;;;;;;;5052118;28;20990;-78
2022/07/23 23:17:02;;;;;;;15.30;10.87;;;;;;;;;;5051714;28;20568;-78
2022/07/23 23:19:28;;;;;;;16.67;12.27;;;;;;;;;;5053769;28;20396;-78
2022/07/23 23:21:54;;;;;;;17.03;12.70;;;;;;;;;;5054515;28;20411;-78
2022/07/23 23:24:20;;;;;;;21.60;11.93;;;;;;;;;;5053613;28;20797;-78
2022/07/23 23:26:46;;;;;;;13.90;12.30;;;;;;;;;;5055899;28;20510;-79
2022/07/23 23:29:12;;;;;;;16.80;12.10;;;;;;;;;;5057465;28;20423;-79
2022/07/23 23:31:38;;;;;;;13.60;10.67;;;;;;;;;;5058882;28;20409;-78
2022/07/23 23:34:04;;;;;;;14.70;12.23;;;;;;;;;;5058839;28;20458;-78
2022/07/23 23:36:30;;;;;;;17.87;11.80;;;;;;;;;;5061814;28;20463;-78
2022/07/23 23:38:56;;;;;;;15.40;11.27;;;;;;;;;;5059633;28;20416;-78
2022/07/23 23:41:25;;;;;;;13.47;10.60;;;;;;;;;;5055393;28;20781;-78
2022/07/23 23:43:52;;;;;;;16.93;10.77;;;;;;;;;;5052390;28;20423;-78
2022/07/23 23:46:18;;;;;;;15.90;11.30;;;;;;;;;;5052060;28;20432;-78
2022/07/23 23:48:44;;;;;;;14.90;10.67;;;;;;;;;;5052931;28;20408;-78
2022/07/23 23:51:10;;;;;;;13.67;10.80;;;;;;;;;;5051895;28;20431;-78
2022/07/23 23:53:36;;;;;;;12.63;10.10;;;;;;;;;;5053152;28;20511;-78
2022/07/23 23:56:03;;;;;;;13.10;9.87;;;;;;;;;;5051526;28;20479;-78
2022/07/23 23:58:29;;;;;;;14.03;10.90;;;;;;;;;;5051239;28;20424;-78
